Time;durP1;ratioP1;P1;durP2;ratioP2;P2;SDS_P1;SDS_P2;PMS_P1;PMS_P2;Temp;Humidity;BMP_temperature;BMP_pressure;BME280_temperature;BME280_humidity;BME280_pressure;Samples;Min_cycle;Max_cycle;Signal;HPM_P1;HPM_P2
2024/03/04 00:01:43;;;;;;;;;;;;;;;5.69;100.00;100400.69;4949474;28;19928;-73
2024/03/04 00:04:09;;;;;;;;;;;;;;;5.76;100.00;100403.66;4980615;28;20062;-75
2024/03/04 00:06:35;;;;;;;;;;;;;;;5.62;100.00;100405.47;4980278;28;19921;-73
2024/03/04 00:09:00;;;;;;;;;;;;;;;5.62;100.00;100404.56;4979462;28;19992;-74
2024/03/04 00:11:26;;;;;;;;;;;;;;;5.66;100.00;100397.13;4987955;28;19992;-75
2024/03/04 00:13:52;;;;;;;;;;;;;;;5.80;100.00;100397.03;4971633;28;20452;-74
2024/03/04 00:16:17;;;;;;;;;;;;;;;5.88;100.00;100398.34;4987852;28;19921;-75
2024/03/04 00:18:42;;;;;;;;;;;;;;;5.84;100.00;100393.81;4987862;28;20381;-76
2024/03/04 00:21:08;;;;;;;;;;;;;;;5.81;100.00;100389.41;4988334;28;20377;-74
2024/03/04 00:23:33;;;;;;;;;;;;;;;5.90;100.00;100383.91;4988500;28;19913;-75
2024/03/04 00:25:59;;;;;;;;;;;;;;;5.86;100.00;100387.13;4987985;28;20417;-73
2024/03/04 00:28:24;;;;;;;;;;;;;;;5.72;100.00;100383.81;5003887;28;19924;-76
2024/03/04 00:30:50;;;;;;;;;;;;;;;5.58;100.00;100383.03;5010230;28;20376;-76
2024/03/04 00:33:15;;;;;;;;;;;;;;;5.52;100.00;100392.94;5010214;28;19925;-78
2024/03/04 00:35:41;;;;;;;;;;;;;;;5.47;100.00;100386.66;5010042;28;20296;-75
2024/03/04 00:38:06;;;;;;;;;;;;;;;5.43;100.00;100388.19;5010074;28;19955;-75
2024/03/04 00:40:32;;;;;;;;;;;;;;;5.46;100.00;100392.59;5010105;28;20008;-77
2024/03/04 00:42:57;;;;;;;;;;;;;;;5.49;100.00;100400.44;5010809;28;19940;-74
2024/03/04 00:45:23;;;;;;;;;;;;;;;5.51;100.00;100393.75;5010161;28;20384;-75
2024/03/04 00:47:48;;;;;;;;;;;;;;;5.44;100.00;100382.25;5002936;28;19967;-74
2024/03/04 00:50:13;;;;;;;;;;;;;;;5.48;100.00;100381.66;5009760;28;20012;-73
2024/03/04 00:52:39;;;;;;;;;;;;;;;5.59;100.00;100371.97;5009700;28;20360;-74
2024/03/04 00:55:05;;;;;;;;;;;;;;;5.72;100.00;100376.13;5011731;28;19921;-74
2024/03/04 00:57:30;;;;;;;;;;;;;;;5.75;100.00;100380.53;5014125;28;19909;-76
2024/03/04 00:59:57;;;;;;;;;;;;;;;5.77;100.00;100368.66;5013642;28;19924;-73
2024/03/04 01:02:22;;;;;;;;;;;;;;;5.75;100.00;100377.97;5013398;28;20771;-76
2024/03/04 01:04:48;;;;;;;;;;;;;;;5.68;100.00;100379.28;5013526;28;19917;-75
2024/03/04 01:07:14;;;;;;;;;;;;;;;5.60;100.00;100381.44;5013449;28;20375;-74
2024/03/04 01:09:40;;;;;;;;;;;;;;;5.46;100.00;100387.47;5011780;28;20425;-76
2024/03/04 01:12:05;;;;;;;;;;;;;;;5.51;100.00;100388.63;5014061;28;20014;-75
2024/03/04 01:14:30;;;;;;;;;;;;;;;5.49;100.00;100392.75;5013390;28;19988;-76
2024/03/04 01:16:56;;;;;;;;;;;;;;;5.33;100.00;100397.03;5012244;28;19949;-73
2024/03/04 01:19:23;;;;;;;;;;;;;;;5.27;100.00;100394.13;5011077;28;19965;-72
2024/03/04 01:21:49;;;;;;;;;;;;;;;5.28;100.00;100390.75;5011937;28;19909;-76
2024/03/04 01:24:17;;;;;;;;;;;;;;;5.31;100.00;100400.28;5013107;28;19920;-73
2024/03/04 01:26:42;;;;;;;;;;;;;;;5.35;100.00;100387.72;5013103;28;19917;-76
2024/03/04 01:29:08;;;;;;;;;;;;;;;5.34;100.00;100393.66;5012737;28;19924;-76
2024/03/04 01:31:34;;;;;;;;;;;;;;;5.35;100.00;100387.72;5012521;28;20344;-76
2024/03/04 01:33:59;;;;;;;;;;;;;;;5.44;100.00;100389.94;5012946;28;19967;-73
2024/03/04 01:36:24;;;;;;;;;;;;;;;5.51;100.00;100388.63;5013477;28;19917;-76
2024/03/04 01:38:50;;;;;;;;;;;;;;;5.56;100.00;100386.28;5012813;28;20352;-74
2024/03/04 01:41:15;;;;;;;;;;;;;;;5.61;100.00;100384.88;5012879;28;20377;-75
2024/03/04 01:43:40;;;;;;;;;;;;;;;5.64;100.00;100382.47;5013207;28;19913;-76
2024/03/04 01:46:08;;;;;;;;;;;;;;;5.75;100.00;100388.22;5013057;28;19927;-77
2024/03/04 01:48:34;;;;;;;;;;;;;;;5.79;100.00;100387.56;5007255;28;19921;-76
2024/03/04 01:51:00;;;;;;;;;;;;;;;5.88;100.00;100384.63;5013081;28;19910;-74
2024/03/04 01:53:26;;;;;;;;;;;;;;;6.01;100.00;100392.22;5012746;28;19917;-74
2024/03/04 01:55:57;;;;;;;;;;;;;;;6.13;100.00;100398.00;5012660;28;19920;-75
2024/03/04 01:58:22;;;;;;;;;;;;;;;6.22;100.00;100400.19;5013485;28;20352;-75
2024/03/04 02:00:51;;;;;;;;;;;;;;;6.34;100.00;100397.38;5012908;28;20006;-74
2024/03/04 02:03:17;;;;;;;;;;;;;;;6.42;100.00;100395.22;5012377;28;20399;-74
2024/03/04 02:05:46;;;;;;;;;;;;;;;6.50;100.00;100396.50;5011976;28;19961;-74
2024/03/04 02:08:15;;;;;;;;;;;;;;;6.59;100.00;100398.66;5011601;28;19917;-74
2024/03/04 02:10:41;;;;;;;;;;;;;;;6.65;100.00;100398.97;5018556;28;19944;-74
2024/03/04 02:13:07;;;;;;;;;;;;;;;6.62;100.00;100399.69;4970912;28;20380;-75
2024/03/04 02:15:36;;;;;;;;;;;;;;;6.67;100.00;100399.03;4981098;28;19971;-73
2024/03/04 02:18:01;;;;;;;;;;;;;;;6.74;100.00;100399.47;5023124;28;19992;-75
2024/03/04 02:20:27;;;;;;;;;;;;;;;6.80;100.00;100391.19;5022570;28;20069;-74
2024/03/04 02:22:54;;;;;;;;;;;;;;;6.87;100.00;100395.81;5021380;28;19960;-75
2024/03/04 02:25:22;;;;;;;;;;;;;;;6.89;100.00;100394.22;5021079;28;20281;-75
2024/03/04 02:27:47;;;;;;;;;;;;;;;6.82;100.00;100392.16;5021276;28;19924;-76
2024/03/04 02:30:13;;;;;;;;;;;;;;;6.91;100.00;100394.28;5019403;28;19917;-74
2024/03/04 02:32:39;;;;;;;;;;;;;;;6.94;100.00;100392.78;5019858;28;19917;-75
2024/03/04 02:35:05;;;;;;;;;;;;;;;6.93;100.00;100395.25;5025010;28;20408;-76
2024/03/04 02:37:36;;;;;;;;;;;;;;;6.89;100.00;100396.78;5019698;28;19909;-74
2024/03/04 02:40:06;;;;;;;;;;;;;;;6.92;100.00;100404.63;5022012;28;20008;-75
2024/03/04 02:42:32;;;;;;;;;;;;;;;6.99;100.00;100400.72;5021672;28;20312;-75
2024/03/04 02:44:57;;;;;;;;;;;;;;;7.02;100.00;100405.97;5021694;28;19924;-80
2024/03/04 02:47:22;;;;;;;;;;;;;;;6.99;100.00;100404.94;5022601;28;19917;-74
2024/03/04 02:49:48;;;;;;;;;;;;;;;7.01;100.00;100411.03;5020490;28;19920;-73
2024/03/04 02:52:13;;;;;;;;;;;;;;;7.01;100.00;100414.47;5023527;28;19913;-75
2024/03/04 02:54:38;;;;;;;;;;;;;;;7.05;100.00;100405.25;4999579;28;19924;-75
2024/03/04 02:57:04;;;;;;;;;;;;;;;7.00;100.00;100406.72;5022052;28;19963;-78
2024/03/04 02:59:29;;;;;;;;;;;;;;;7.01;100.00;100413.63;5021384;28;19968;-73
2024/03/04 03:01:55;;;;;;;;;;;;;;;7.05;100.00;100416.41;5021083;28;19924;-75
2024/03/04 03:04:20;;;;;;;;;;;;;;;7.11;100.00;100426.09;5023562;28;19912;-74
2024/03/04 03:06:45;;;;;;;;;;;;;;;7.15;100.00;100427.13;5018267;28;19929;-74
2024/03/04 03:09:14;;;;;;;;;;;;;;;7.11;100.00;100421.81;5019768;28;19921;-74
2024/03/04 03:11:40;;;;;;;;;;;;;;;7.13;100.00;100421.94;5011233;28;19926;-73
2024/03/04 03:14:05;;;;;;;;;;;;;;;7.11;100.00;100415.81;5010856;28;20444;-75
2024/03/04 03:16:31;;;;;;;;;;;;;;;7.08;100.00;100415.69;5012125;28;20004;-74
2024/03/04 03:18:56;;;;;;;;;;;;;;;7.02;100.00;100415.38;5010704;28;19921;-76
2024/03/04 03:21:22;;;;;;;;;;;;;;;7.05;100.00;100416.41;5010772;28;19921;-75
2024/03/04 03:23:47;;;;;;;;;;;;;;;7.10;100.00;100424.31;4981238;28;19948;-76
2024/03/04 03:26:12;;;;;;;;;;;;;;;7.07;100.00;100412.22;5010569;28;20323;-74
2024/03/04 03:28:39;;;;;;;;;;;;;;;7.02;100.00;100410.25;5009943;28;19917;-75
2024/03/04 03:31:04;;;;;;;;;;;;;;;6.95;100.00;100416.72;5002403;28;19913;-77
2024/03/04 03:33:29;;;;;;;;;;;;;;;6.80;100.00;100432.22;5008658;28;19913;-75
2024/03/04 03:35:55;;;;;;;;;;;;;;;6.81;100.00;100426.31;5011016;28;19913;-73
2024/03/04 03:38:20;;;;;;;;;;;;;;;6.85;100.00;100420.50;5011053;28;20028;-73
2024/03/04 03:40:46;;;;;;;;;;;;;;;6.83;100.00;100416.09;5010544;28;19924;-74
2024/03/04 03:43:11;;;;;;;;;;;;;;;6.86;100.00;100412.00;5011230;28;20391;-74
2024/03/04 03:45:38;;;;;;;;;;;;;;;6.84;100.00;100418.78;5010530;28;19913;-74
2024/03/04 03:48:04;;;;;;;;;;;;;;;6.80;100.00;100420.31;5003909;28;20678;-73
2024/03/04 03:50:29;;;;;;;;;;;;;;;6.81;100.00;100418.59;4999487;28;19917;-75
2024/03/04 03:52:54;;;;;;;;;;;;;;;6.77;100.00;100416.69;5010245;28;19920;-74
2024/03/04 03:55:20;;;;;;;;;;;;;;;6.80;100.00;100416.84;5011247;28;19914;-74
2024/03/04 03:57:45;;;;;;;;;;;;;;;6.93;100.00;100415.78;5010161;28;19975;-73
2024/03/04 04:00:11;;;;;;;;;;;;;;;6.96;100.00;100421.06;5010652;28;19983;-74
2024/03/04 04:02:36;;;;;;;;;;;;;;;7.00;100.00;100414.41;5009881;28;19921;-74
2024/03/04 04:05:02;;;;;;;;;;;;;;;7.00;100.00;100420.41;5010031;28;19917;-74
2024/03/04 04:07:28;;;;;;;;;;;;;;;7.00;100.00;100419.53;5010325;28;19956;-74
2024/03/04 04:09:53;;;;;;;;;;;;;;;6.93;100.00;100432.06;5010460;28;20385;-75
2024/03/04 04:12:18;;;;;;;;;;;;;;;6.86;100.00;100423.97;5010574;28;19921;-73
2024/03/04 04:14:44;;;;;;;;;;;;;;;6.80;100.00;100430.56;5010335;28;19905;-76
2024/03/04 04:17:09;;;;;;;;;;;;;;;6.78;100.00;100433.84;5010689;28;20281;-77
2024/03/04 04:19:34;;;;;;;;;;;;;;;6.77;100.00;100439.78;4995820;28;20382;-75
2024/03/04 04:22:00;;;;;;;;;;;;;;;6.78;100.00;100442.41;5007480;28;19921;-74
2024/03/04 04:24:25;;;;;;;;;;;;;;;6.73;100.00;100446.44;5010050;28;19925;-74
2024/03/04 04:26:51;;;;;;;;;;;;;;;6.66;100.00;100441.78;5009991;28;19925;-75
2024/03/04 04:29:16;;;;;;;;;;;;;;;6.59;100.00;100444.81;5010148;28;19917;-74
2024/03/04 04:31:41;;;;;;;;;;;;;;;6.54;100.00;100448.84;5014139;28;19927;-75
2024/03/04 04:34:07;;;;;;;;;;;;;;;6.54;100.00;100449.72;5013962;28;19928;-78
2024/03/04 04:36:32;;;;;;;;;;;;;;;6.52;100.00;100446.19;5015071;28;19913;-74
2024/03/04 04:38:58;;;;;;;;;;;;;;;6.52;100.00;100447.84;5013320;28;20063;-74
2024/03/04 04:41:23;;;;;;;;;;;;;;;6.40;100.00;100438.72;5014139;28;19971;-75
2024/03/04 04:43:48;;;;;;;;;;;;;;;6.42;100.00;100441.38;5014592;28;19975;-74
2024/03/04 04:46:15;;;;;;;;;;;;;;;6.43;100.00;100443.13;5014394;28;19921;-75
2024/03/04 04:48:40;;;;;;;;;;;;;;;6.45;100.00;100444.09;5014055;28;19935;-74
2024/03/04 04:51:06;;;;;;;;;;;;;;;6.43;100.00;100433.78;5015300;28;19988;-74
2024/03/04 04:53:32;;;;;;;;;;;;;;;6.36;100.00;100433.38;5013918;28;19924;-74
2024/03/04 04:55:57;;;;;;;;;;;;;;;6.34;100.00;100442.66;5013956;28;20384;-74
2024/03/04 04:58:23;;;;;;;;;;;;;;;6.41;100.00;100439.63;5014663;28;19921;-74
2024/03/04 05:00:48;;;;;;;;;;;;;;;6.50;100.00;100440.09;5013721;28;19920;-74
2024/03/04 05:03:14;;;;;;;;;;;;;;;6.57;100.00;100442.19;5013923;28;19924;-75
2024/03/04 05:05:39;;;;;;;;;;;;;;;6.63;100.00;100449.34;5013325;28;19917;-73
2024/03/04 05:08:05;;;;;;;;;;;;;;;6.64;100.00;100449.41;5013700;28;19942;-75
2024/03/04 05:10:30;;;;;;;;;;;;;;;6.59;100.00;100450.84;5013186;28;19924;-75
2024/03/04 05:12:56;;;;;;;;;;;;;;;6.58;100.00;100453.31;5014223;28;19940;-74
2024/03/04 05:15:21;;;;;;;;;;;;;;;6.47;100.00;100455.34;5013753;28;19936;-72
2024/03/04 05:17:46;;;;;;;;;;;;;;;6.40;100.00;100459.22;4997249;28;19918;-74
2024/03/04 05:20:15;;;;;;;;;;;;;;;6.39;100.00;100466.84;5013573;28;19928;-73
2024/03/04 05:22:41;;;;;;;;;;;;;;;6.37;100.00;100471.00;5009438;28;19913;-74
2024/03/04 05:25:06;;;;;;;;;;;;;;;6.24;100.00;100470.38;5014146;28;19936;-75
2024/03/04 05:27:32;;;;;;;;;;;;;;;6.17;100.00;100475.97;5013402;28;20036;-74
2024/03/04 05:29:57;;;;;;;;;;;;;;;6.17;100.00;100477.63;5012920;28;19991;-73
2024/03/04 05:32:23;;;;;;;;;;;;;;;6.19;100.00;100471.78;5013319;28;19924;-74
2024/03/04 05:34:49;;;;;;;;;;;;;;;6.25;100.00;100466.97;5013630;28;20365;-74
2024/03/04 05:37:14;;;;;;;;;;;;;;;6.28;100.00;100477.41;4979437;28;19964;-75
2024/03/04 05:39:44;;;;;;;;;;;;;;;6.29;100.00;100481.75;4980832;28;19969;-76
2024/03/04 05:42:09;;;;;;;;;;;;;;;6.29;100.00;100473.16;4979319;28;19920;-73
2024/03/04 05:44:34;;;;;;;;;;;;;;;6.27;100.00;100480.78;4980374;28;20412;-75
2024/03/04 05:47:01;;;;;;;;;;;;;;;6.30;100.00;100480.94;4979627;28;19922;-74
2024/03/04 05:49:27;;;;;;;;;;;;;;;6.36;100.00;100487.22;4981838;28;19968;-74
2024/03/04 05:51:52;;;;;;;;;;;;;;;6.41;100.00;100491.78;4980805;28;19918;-74
2024/03/04 05:54:18;;;;;;;;;;;;;;;6.41;100.00;100484.09;4980889;28;19917;-71
2024/03/04 05:56:45;;;;;;;;;;;;;;;6.42;100.00;100492.69;4978987;28;19918;-72
2024/03/04 05:59:11;;;;;;;;;;;;;;;6.44;100.00;100501.31;4978556;28;20378;-73
2024/03/04 06:01:36;;;;;;;;;;;;;;;6.43;100.00;100495.31;4982466;28;19925;-74
2024/03/04 06:04:02;;;;;;;;;;;;;;;6.42;100.00;100500.38;4984479;28;19972;-73
2024/03/04 06:06:27;;;;;;;;;;;;;;;6.46;100.00;100509.97;4969907;28;19918;-74
2024/03/04 06:08:53;;;;;;;;;;;;;;;6.45;100.00;100503.94;5003568;28;19921;-74
2024/03/04 06:11:18;;;;;;;;;;;;;;;6.50;100.00;100508.47;5012568;28;20015;-75
2024/03/04 06:13:43;;;;;;;;;;;;;;;6.55;100.00;100514.72;5012856;28;20305;-74
2024/03/04 06:16:09;;;;;;;;;;;;;;;6.59;100.00;100512.41;5012401;28;20300;-74
2024/03/04 06:18:34;;;;;;;;;;;;;;;6.60;100.00;100514.19;5012378;28;19978;-73
2024/03/04 06:20:59;;;;;;;;;;;;;;;6.67;100.00;100505.13;5011769;28;19967;-74
2024/03/04 06:23:25;;;;;;;;;;;;;;;6.78;100.00;100506.56;5011430;28;19928;-77
2024/03/04 06:25:50;;;;;;;;;;;;;;;6.89;100.00;100503.69;5010600;28;19913;-76
2024/03/04 06:28:15;;;;;;;;;;;;;;;6.94;100.00;100505.69;5011776;28;19928;-74
2024/03/04 06:30:41;;;;;;;;;;;;;;;7.00;100.00;100499.97;5011885;28;19914;-74
2024/03/04 06:33:06;;;;;;;;;;;;;;;7.06;100.00;100507.13;5011585;28;19917;-72
2024/03/04 06:35:32;;;;;;;;;;;;;;;7.08;100.00;100513.25;5011281;28;20351;-74
2024/03/04 06:37:57;;;;;;;;;;;;;;;7.12;100.00;100504.88;5011318;28;19917;-72
2024/03/04 06:40:24;;;;;;;;;;;;;;;7.18;100.00;100506.88;5010446;28;20312;-72
2024/03/04 06:42:49;;;;;;;;;;;;;;;7.19;100.00;100499.25;4947951;28;19917;-75
2024/03/04 06:45:15;;;;;;;;;;;;;;;7.22;100.00;100501.97;5010054;28;20003;-74
2024/03/04 06:47:40;;;;;;;;;;;;;;;7.23;100.00;100508.00;5010619;28;19921;-74
2024/03/04 06:50:06;;;;;;;;;;;;;;;7.28;100.00;100507.41;4999258;28;19920;-73
2024/03/04 06:52:32;;;;;;;;;;;;;;;7.36;100.00;100504.38;4994241;28;19928;-73
2024/03/04 06:54:57;;;;;;;;;;;;;;;7.39;100.00;100514.78;5009588;28;19913;-73
2024/03/04 06:57:22;;;;;;;;;;;;;;;7.44;100.00;100509.06;5011441;28;20472;-73
2024/03/04 06:59:47;;;;;;;;;;;;;;;7.54;100.00;100515.56;5011031;28;20315;-72
2024/03/04 07:02:13;;;;;;;;;;;;;;;7.60;100.00;100517.53;5011414;28;19924;-74
2024/03/04 07:04:38;;;;;;;;;;;;;;;7.58;100.00;100525.19;5004771;28;19936;-73
2024/03/04 07:07:03;;;;;;;;;;;;;;;7.60;100.00;100521.00;4995946;28;19921;-73
2024/03/04 07:09:29;;;;;;;;;;;;;;;7.58;100.00;100511.47;5014562;28;19924;-73
2024/03/04 07:11:54;;;;;;;;;;;;;;;7.59;100.00;100513.22;5016110;28;20369;-74
2024/03/04 07:14:20;;;;;;;;;;;;;;;7.63;100.00;100520.28;5022077;28;20350;-74
2024/03/04 07:16:45;;;;;;;;;;;;;;;7.67;100.00;100514.47;5017340;28;19917;-74
2024/03/04 07:19:11;;;;;;;;;;;;;;;7.61;100.00;100504.78;5021604;28;19920;-74
2024/03/04 07:21:36;;;;;;;;;;;;;;;7.69;100.00;100502.59;5018154;28;20293;-74
2024/03/04 07:24:02;;;;;;;;;;;;;;;7.77;100.00;100497.81;5021503;28;19917;-74
2024/03/04 07:26:27;;;;;;;;;;;;;;;7.75;100.00;100494.28;5022554;28;19971;-74
2024/03/04 07:28:53;;;;;;;;;;;;;;;7.80;100.00;100486.81;5014467;28;19917;-74
2024/03/04 07:31:19;;;;;;;;;;;;;;;7.82;100.00;100491.22;5020538;28;19917;-74
2024/03/04 07:33:44;;;;;;;;;;;;;;;7.83;100.00;100487.84;5016123;28;19913;-74
2024/03/04 07:36:13;;;;;;;;;;;;;;;7.88;100.00;100485.50;5013789;28;19918;-74
2024/03/04 07:38:39;;;;;;;;;;;;;;;7.97;100.00;100491.06;5012635;28;20366;-75
2024/03/04 07:41:04;;;;;;;;;;;;;;;8.00;100.00;100492.91;5015647;28;19925;-72
2024/03/04 07:43:30;;;;;;;;;;;;;;;7.96;100.00;100494.44;4999379;28;19925;-72
2024/03/04 07:45:55;;;;;;;;;;;;;;;7.84;100.00;100504.13;5017167;28;19913;-73
2024/03/04 07:48:21;;;;;;;;;;;;;;;7.86;100.00;100500.84;4998960;28;19979;-74
2024/03/04 07:50:46;;;;;;;;;;;;;;;7.89;100.00;100501.00;5011740;28;19925;-72
2024/03/04 07:53:12;;;;;;;;;;;;;;;7.91;100.00;100501.94;5017457;28;19924;-72
2024/03/04 07:55:38;;;;;;;;;;;;;;;7.87;100.00;100505.16;5017782;28;19921;-74
2024/03/04 07:58:05;;;;;;;;;;;;;;;7.80;100.00;100500.56;5021926;28;20380;-73
2024/03/04 08:00:30;;;;;;;;;;;;;;;7.93;100.00;100496.88;5016103;28;20254;-72
2024/03/04 08:02:55;;;;;;;;;;;;;;;7.91;100.00;100504.53;5014026;28;20008;-75
2024/03/04 08:05:21;;;;;;;;;;;;;;;7.91;100.00;100499.38;5021041;28;19964;-73
2024/03/04 08:07:46;;;;;;;;;;;;;;;7.88;100.00;100499.22;5019633;28;19917;-73
2024/03/04 08:10:13;;;;;;;;;;;;;;;8.00;100.00;100504.09;5021769;28;20321;-74
2024/03/04 08:12:39;;;;;;;;;;;;;;;8.14;100.00;100501.25;5023515;28;19925;-73
2024/03/04 08:15:04;;;;;;;;;;;;;;;8.17;100.00;100498.84;5016994;28;19936;-73
2024/03/04 08:17:31;;;;;;;;;;;;;;;8.25;100.00;100498.41;5013789;28;20396;-75
2024/03/04 08:19:58;;;;;;;;;;;;;;;8.25;100.00;100500.97;5016007;28;19914;-72
2024/03/04 08:22:24;;;;;;;;;;;;;;;8.24;100.00;100499.19;5020435;28;19914;-74
2024/03/04 08:24:49;;;;;;;;;;;;;;;8.32;100.00;100493.53;5016079;28;19925;-73
2024/03/04 08:27:15;;;;;;;;;;;;;;;8.43;100.00;100492.34;4984824;28;19925;-73
2024/03/04 08:29:40;;;;;;;;;;;;;;;8.51;100.00;100498.75;5024044;28;19960;-74
2024/03/04 08:32:06;;;;;;;;;;;;;;;8.53;100.00;100489.41;5015993;28;20395;-75
2024/03/04 08:34:32;;;;;;;;;;;;;;;8.55;100.00;100494.63;5010467;28;19984;-77
2024/03/04 08:36:58;;;;;;;;;;;;;;;8.61;100.00;100488.88;5001519;28;20306;-73
2024/03/04 08:39:24;;;;;;;;;;;;;;;8.60;100.00;100490.59;5018403;28;19974;-73
2024/03/04 08:41:50;;;;;;;;;;;;;;;8.67;100.00;100495.19;5015220;28;19968;-73
2024/03/04 08:44:16;;;;;;;;;;;;;;;8.68;100.00;100485.78;5016975;28;19947;-73
2024/03/04 08:46:41;;;;;;;;;;;;;;;8.79;100.00;100484.56;5017240;28;19917;-72
2024/03/04 08:49:07;;;;;;;;;;;;;;;8.90;100.00;100488.47;5013792;28;19924;-72
2024/03/04 08:51:32;;;;;;;;;;;;;;;8.92;100.00;100479.94;5014471;28;20377;-73
2024/03/04 08:53:58;;;;;;;;;;;;;;;8.99;100.00;100480.28;5016639;28;19913;-71
2024/03/04 08:56:24;;;;;;;;;;;;;;;9.06;100.00;100481.44;5015547;28;19963;-73
2024/03/04 08:58:50;;;;;;;;;;;;;;;9.14;100.00;100481.75;5014961;28;19970;-73
2024/03/04 09:01:17;;;;;;;;;;;;;;;9.18;100.00;100488.78;5015410;28;19917;-73
2024/03/04 09:03:43;;;;;;;;;;;;;;;9.25;100.00;100495.97;5018872;28;19921;-73
2024/03/04 09:06:18;;;;;;;;;;;;;;;9.32;100.00;100491.94;5001004;28;19971;-74
2024/03/04 09:08:43;;;;;;;;;;;;;;;9.38;100.00;100490.53;5004488;28;19987;-73
2024/03/04 09:11:12;;;;;;;;;;;;;;;9.51;100.00;100488.47;5009625;28;19922;-72
2024/03/04 09:13:37;;;;;;;;;;;;;;;9.52;100.00;100480.78;5008778;28;19967;-73
2024/03/04 09:16:04;;;;;;;;;;;;;;;9.60;100.00;100485.41;5009208;28;19971;-73
2024/03/04 09:18:29;;;;;;;;;;;;;;;9.60;100.00;100485.41;5005661;28;19923;-73
2024/03/04 09:20:55;;;;;;;;;;;;;;;9.60;100.00;100491.41;5012642;28;19929;-74
2024/03/04 09:23:20;;;;;;;;;;;;;;;9.65;100.00;100482.16;5012519;28;19967;-73
2024/03/04 09:25:46;;;;;;;;;;;;;;;9.78;100.00;100486.16;5012567;28;19914;-72
2024/03/04 09:28:11;;;;;;;;;;;;;;;9.85;100.00;100489.84;5008148;28;19920;-73
2024/03/04 09:30:36;;;;;;;;;;;;;;;9.84;100.00;100483.81;4988800;28;19965;-73
2024/03/04 09:33:05;;;;;;;;;;;;;;;9.88;100.00;100475.38;5012462;28;19913;-73
2024/03/04 09:35:30;;;;;;;;;;;;;;;9.91;100.00;100489.22;5012318;28;19925;-74
2024/03/04 09:37:55;;;;;;;;;;;;;;;10.01;100.00;100478.44;5012784;28;19917;-73
2024/03/04 09:40:22;;;;;;;;;;;;;;;10.06;100.00;100470.88;5012297;28;19924;-73
2024/03/04 09:42:48;;;;;;;;;;;;;;;10.10;100.00;100465.03;5012915;28;19917;-77
2024/03/04 09:45:14;;;;;;;;;;;;;;;10.15;100.00;100460.91;5012438;28;19968;-75
2024/03/04 09:47:40;;;;;;;;;;;;;;;10.25;100.00;100457.84;5012309;28;20008;-73
2024/03/04 09:50:08;;;;;;;;;;;;;;;10.29;100.00;100454.59;5010958;28;19917;-73
2024/03/04 09:52:35;;;;;;;;;;;;;;;10.35;100.00;100453.94;5012641;28;20296;-73
2024/03/04 09:55:00;;;;;;;;;;;;;;;10.47;100.00;100454.41;5002908;28;20016;-73
2024/03/04 09:57:26;;;;;;;;;;;;;;;10.52;100.00;100452.00;5008973;28;20004;-73
2024/03/04 09:59:52;;;;;;;;;;;;;;;10.61;100.00;100454.91;5010159;28;19921;-76
2024/03/04 10:02:18;;;;;;;;;;;;;;;10.70;100.00;100456.94;5012248;28;19964;-73
2024/03/04 10:04:44;;;;;;;;;;;;;;;10.71;100.00;100453.56;5009522;28;19951;-72
2024/03/04 10:07:09;;;;;;;;;;;;;;;10.67;100.00;100454.28;5002029;28;19914;-73
2024/03/04 10:09:35;;;;;;;;;;;;;;;10.64;100.00;100448.97;5010202;28;19922;-73
2024/03/04 10:12:02;;;;;;;;;;;;;;;10.65;100.00;100443.91;5009039;28;20352;-72
2024/03/04 10:14:29;;;;;;;;;;;;;;;10.87;100.00;100438.63;5011533;28;19944;-72
2024/03/04 10:16:55;;;;;;;;;;;;;;;11.10;100.00;100435.13;5012871;28;19914;-71
2024/03/04 10:19:21;;;;;;;;;;;;;;;11.45;100.00;100425.09;5008367;28;19916;-77
2024/03/04 10:21:46;;;;;;;;;;;;;;;11.57;100.00;100421.13;5010543;28;19913;-73
2024/03/04 10:24:12;;;;;;;;;;;;;;;11.74;100.00;100419.97;5009351;28;19913;-73
2024/03/04 10:26:40;;;;;;;;;;;;;;;11.89;100.00;100422.16;5009150;28;19967;-73
2024/03/04 10:29:06;;;;;;;;;;;;;;;11.93;100.00;100416.22;5005362;28;19917;-74
2024/03/04 10:31:31;;;;;;;;;;;;;;;12.03;100.00;100417.41;5007827;28;20278;-72
2024/03/04 10:33:57;;;;;;;;;;;;;;;12.14;100.00;100412.56;5006422;28;19918;-72
2024/03/04 10:36:22;;;;;;;;;;;;;;;12.17;100.00;100412.66;5009696;28;19925;-72
2024/03/04 10:38:48;;;;;;;;;;;;;;;12.14;100.00;100407.41;4985992;28;19928;-74
2024/03/04 10:41:17;;;;;;;;;;;;;;;12.28;100.00;100400.03;5007258;28;20059;-74
2024/03/04 10:43:43;;;;;;;;;;;;;;;12.41;100.00;100403.84;5004469;28;19920;-74
2024/03/04 10:46:10;;;;;;;;;;;;;;;12.48;100.00;100410.94;5009868;28;20007;-74
2024/03/04 10:48:36;;;;;;;;;;;;;;;12.51;100.00;100405.88;5011265;28;19972;-74
2024/03/04 10:51:01;;;;;;;;;;;;;;;12.58;100.00;100396.56;4997831;28;19918;-74
2024/03/04 10:53:26;;;;;;;;;;;;;;;12.52;100.00;100399.84;5011118;28;19973;-74
2024/03/04 10:55:54;;;;;;;;;;;;;;;12.53;100.00;100392.97;5011744;28;19917;-73
2024/03/04 10:58:20;;;;;;;;;;;;;;;12.53;100.00;100395.56;5011296;28;20311;-75
2024/03/04 11:00:46;;;;;;;;;;;;;;;12.56;100.00;100395.63;5011255;28;19917;-75
2024/03/04 11:03:15;;;;;;;;;;;;;;;12.51;100.00;100398.09;4993027;28;19917;-74
2024/03/04 11:05:44;;;;;;;;;;;;;;;12.54;100.00;100398.19;5011214;28;20347;-78
2024/03/04 11:08:16;;;;;;;;;;;;;;;12.60;100.00;100388.00;5011096;28;19917;-74
2024/03/04 11:10:46;;;;;;;;;;;;;;;12.68;100.00;100379.56;5007107;28;20344;-74
2024/03/04 11:13:12;;;;;;;;;;;;;;;12.60;100.00;100376.75;5010649;28;19922;-74
2024/03/04 11:15:42;;;;;;;;;;;;;;;12.65;100.00;100377.75;5011618;28;19913;-74
2024/03/04 11:18:14;;;;;;;;;;;;;;;12.74;100.00;100361.59;5010897;28;19920;-75
2024/03/04 11:20:46;;;;;;;;;;;;;;;12.78;100.00;100364.31;5002819;28;19917;-71
2024/03/04 11:23:12;;;;;;;;;;;;;;;12.71;100.00;100353.72;4983177;28;19991;-73
2024/03/04 11:25:38;;;;;;;;;;;;;;;12.69;100.00;100356.28;5010986;28;19966;-73
2024/03/04 11:28:04;;;;;;;;;;;;;;;12.61;100.00;100352.59;5010491;28;20004;-72
2024/03/04 11:30:29;;;;;;;;;;;;;;;12.60;100.00;100350.88;5011331;28;20008;-74
2024/03/04 11:32:55;;;;;;;;;;;;;;;12.68;100.00;100351.06;5010646;28;19917;-75
2024/03/04 11:35:26;;;;;;;;;;;;;;;12.83;100.00;100341.09;5010931;28;19967;-75
2024/03/04 11:38:12;;;;;;;;;;;;;;;12.93;100.00;100340.50;5009817;28;19990;-72
2024/03/04 11:40:37;;;;;;;;;;;;;;;13.08;100.00;100331.34;4998264;28;19921;-77
2024/03/04 11:43:03;;;;;;;;;;;;;;;13.06;100.00;100339.09;5011498;28;20051;-72
2024/03/04 11:45:32;;;;;;;;;;;;;;;13.10;100.00;100330.53;5000646;28;19917;-74
2024/03/04 11:47:58;;;;;;;;;;;;;;;13.16;100.00;100324.63;5010039;28;19921;-77
2024/03/04 11:50:46;;;;;;;;;;;;;;;13.18;100.00;100314.31;5010492;28;19917;-74
2024/03/04 11:53:26;;;;;;;;;;;;;;;13.25;100.00;100308.44;5011051;28;19917;-75
2024/03/04 11:55:53;;;;;;;;;;;;;;;13.31;100.00;100316.34;5010605;28;19913;-75
2024/03/04 11:58:18;;;;;;;;;;;;;;;13.40;100.00;100308.81;5008710;28;19967;-75
2024/03/04 12:00:44;;;;;;;;;;;;;;;13.73;100.00;100299.13;5010782;28;19918;-74
2024/03/04 12:03:11;;;;;;;;;;;;;;;14.05;100.00;100298.94;4986111;28;19917;-74
2024/03/04 12:05:38;;;;;;;;;;;;;;;14.11;100.00;100295.59;4982547;28;20370;-74
2024/03/04 12:08:03;;;;;;;;;;;;;;;14.20;100.00;100293.16;5010062;28;19932;-77
2024/03/04 12:10:29;;;;;;;;;;;;;;;14.19;100.00;100283.63;5010305;28;19921;-72
2024/03/04 12:12:55;;;;;;;;;;;;;;;14.29;100.00;100280.34;5009898;28;20444;-73
2024/03/04 12:15:21;;;;;;;;;;;;;;;14.55;100.00;100277.34;5010071;28;19921;-73
2024/03/04 12:17:46;;;;;;;;;;;;;;;14.63;100.00;100280.97;5009951;28;19998;-72
2024/03/04 12:20:13;;;;;;;;;;;;;;;14.78;100.00;100266.50;5009790;28;19921;-73
2024/03/04 12:22:38;;;;;;;;;;;;;;;14.82;100.00;100270.91;5010656;28;19913;-70
2024/03/04 12:25:04;;;;;;;;;;;;;;;14.78;100.00;100267.38;5010196;28;20418;-74
2024/03/04 12:27:30;;;;;;;;;;;;;;;14.86;100.00;100262.31;5009161;28;19921;-74
2024/03/04 12:30:09;;;;;;;;;;;;;;;14.86;100.00;100264.91;4998317;28;19924;-74